Kamas, Utah
Current Conditions -  °F | °C
As of 9:55 AM on Monday 22 Dec 2014 (Local Time) from K36U Reporting Station
Haze Haze  
Wind Chill: 26°   Ceiling: 3700
Heat Index: 32°   Visibility: 5mi
Dew Point: 32°   Wind: 6mph
Humidity: 100%   Direction: 270°W
Pressure: 29.94"   Gusts: NA
Location:  40.64°N, 111.28°W
Report Text: K36U 221655Z AUTO 27005KT 5SM BR SCT022 SCT031 OVC037 00/00 A2994 RMK AO2
Loading
Personal Weather Stations






























Interactive Weather Map New forecast layout! Learn more

10-Day Weather Forecast

Advertisements
Track Severe Weather on mobile